sensor_id;sensor_type;location;lat;lon;timestamp;pressure;altitude;pressure_sealevel;temperature;humidity
15193;BME280;7697;51.630;7.484;2022-11-13T00:02:38;102013.47;;;8.95;86.81
15193;BME280;7697;51.630;7.484;2022-11-13T00:07:41;102006.16;;;8.89;86.87
15193;BME280;7697;51.630;7.484;2022-11-13T00:12:43;102005.13;;;8.82;87.36
15193;BME280;7697;51.630;7.484;2022-11-13T00:17:45;102011.38;;;8.81;86.98
15193;BME280;7697;51.630;7.484;2022-11-13T00:22:48;102012.69;;;8.77;86.90
15193;BME280;7697;51.630;7.484;2022-11-13T00:27:50;102004.50;;;8.70;87.55
15193;BME280;7697;51.630;7.484;2022-11-13T00:32:51;102014.03;;;8.63;87.11
15193;BME280;7697;51.630;7.484;2022-11-13T00:37:54;102007.00;;;8.54;87.07
15193;BME280;7697;51.630;7.484;2022-11-13T00:42:56;101998.09;;;8.37;86.88
15193;BME280;7697;51.630;7.484;2022-11-13T00:47:58;101994.25;;;8.32;87.46
15193;BME280;7697;51.630;7.484;2022-11-13T00:53:01;101985.34;;;8.33;87.29
15193;BME280;7697;51.630;7.484;2022-11-13T00:58:03;101973.31;;;8.20;87.37
15193;BME280;7697;51.630;7.484;2022-11-13T01:03:05;101973.75;;;8.16;88.36
15193;BME280;7697;51.630;7.484;2022-11-13T01:08:08;101976.25;;;8.17;87.51
15193;BME280;7697;51.630;7.484;2022-11-13T01:13:10;101977.22;;;8.16;87.83
15193;BME280;7697;51.630;7.484;2022-11-13T01:18:12;101977.53;;;8.13;87.72
15193;BME280;7697;51.630;7.484;2022-11-13T01:23:15;101971.19;;;8.06;87.23
15193;BME280;7697;51.630;7.484;2022-11-13T01:28:17;101969.00;;;8.02;87.19
15193;BME280;7697;51.630;7.484;2022-11-13T01:33:18;101955.56;;;7.95;87.77
15193;BME280;7697;51.630;7.484;2022-11-13T01:38:21;101948.50;;;7.96;87.96
15193;BME280;7697;51.630;7.484;2022-11-13T01:43:25;101953.91;;;7.94;88.39
15193;BME280;7697;51.630;7.484;2022-11-13T01:48:32;101944.75;;;7.88;88.76
15193;BME280;7697;51.630;7.484;2022-11-13T01:53:36;101950.50;;;7.84;88.59
15193;BME280;7697;51.630;7.484;2022-11-13T01:58:39;101947.31;;;7.80;88.08
15193;BME280;7697;51.630;7.484;2022-11-13T02:03:41;101944.16;;;7.77;88.25
15193;BME280;7697;51.630;7.484;2022-11-13T02:08:44;101933.88;;;7.74;88.80
15193;BME280;7697;51.630;7.484;2022-11-13T02:13:47;101932.38;;;7.71;88.85
15193;BME280;7697;51.630;7.484;2022-11-13T02:18:49;101926.16;;;7.63;87.83
15193;BME280;7697;51.630;7.484;2022-11-13T02:23:59;101919.72;;;7.47;87.98
15193;BME280;7697;51.630;7.484;2022-11-13T02:29:03;101917.50;;;7.43;88.09
15193;BME280;7697;51.630;7.484;2022-11-13T02:34:05;101919.78;;;7.38;88.55
15193;BME280;7697;51.630;7.484;2022-11-13T02:39:09;101914.78;;;7.35;88.52
15193;BME280;7697;51.630;7.484;2022-11-13T02:44:12;101916.19;;;7.29;88.08
15193;BME280;7697;51.630;7.484;2022-11-13T02:49:14;101901.25;;;7.20;88.35
15193;BME280;7697;51.630;7.484;2022-11-13T02:54:15;101892.31;;;7.03;88.10
15193;BME280;7697;51.630;7.484;2022-11-13T02:59:18;101892.19;;;6.95;88.47
15193;BME280;7697;51.630;7.484;2022-11-13T03:04:20;101886.50;;;6.90;88.60
15193;BME280;7697;51.630;7.484;2022-11-13T03:09:22;101885.16;;;6.86;88.89
15193;BME280;7697;51.630;7.484;2022-11-13T03:14:25;101878.59;;;6.90;89.35
15193;BME280;7697;51.630;7.484;2022-11-13T03:19:27;101884.56;;;6.92;88.70
15193;BME280;7697;51.630;7.484;2022-11-13T03:24:29;101881.53;;;6.87;88.34
15193;BME280;7697;51.630;7.484;2022-11-13T03:29:32;101880.03;;;6.75;88.52
15193;BME280;7697;51.630;7.484;2022-11-13T03:34:34;101877.53;;;6.73;89.43
15193;BME280;7697;51.630;7.484;2022-11-13T03:39:35;101879.78;;;6.68;89.44
15193;BME280;7697;51.630;7.484;2022-11-13T03:44:38;101876.72;;;6.63;89.43
15193;BME280;7697;51.630;7.484;2022-11-13T03:49:40;101874.78;;;6.65;89.46
15193;BME280;7697;51.630;7.484;2022-11-13T03:54:42;101865.13;;;6.56;89.77
15193;BME280;7697;51.630;7.484;2022-11-13T03:59:45;101865.97;;;6.47;89.51
15193;BME280;7697;51.630;7.484;2022-11-13T04:04:47;101859.34;;;6.43;88.90
15193;BME280;7697;51.630;7.484;2022-11-13T04:09:49;101852.94;;;6.36;89.15
15193;BME280;7697;51.630;7.484;2022-11-13T04:14:52;101847.56;;;6.37;89.11
15193;BME280;7697;51.630;7.484;2022-11-13T04:19:53;101845.75;;;6.38;89.25
15193;BME280;7697;51.630;7.484;2022-11-13T04:24:55;101843.69;;;6.32;89.02
15193;BME280;7697;51.630;7.484;2022-11-13T04:29:58;101841.31;;;6.29;89.08
15193;BME280;7697;51.630;7.484;2022-11-13T04:35:00;101837.16;;;6.26;88.92
15193;BME280;7697;51.630;7.484;2022-11-13T04:40:01;101829.00;;;6.20;89.10
15193;BME280;7697;51.630;7.484;2022-11-13T04:45:06;101831.25;;;6.15;89.51
15193;BME280;7697;51.630;7.484;2022-11-13T04:50:08;101823.75;;;6.10;88.99
15193;BME280;7697;51.630;7.484;2022-11-13T04:55:10;101822.09;;;5.99;88.41
15193;BME280;7697;51.630;7.484;2022-11-13T05:00:14;101812.97;;;5.94;89.02
15193;BME280;7697;51.630;7.484;2022-11-13T05:05:17;101808.81;;;5.91;89.05
15193;BME280;7697;51.630;7.484;2022-11-13T05:10:18;101804.94;;;5.95;89.59
15193;BME280;7697;51.630;7.484;2022-11-13T05:15:21;101797.06;;;5.95;89.42
15193;BME280;7697;51.630;7.484;2022-11-13T05:20:23;101795.41;;;5.94;90.46
15193;BME280;7697;51.630;7.484;2022-11-13T05:25:24;101794.16;;;5.98;90.81
15193;BME280;7697;51.630;7.484;2022-11-13T05:30:27;101799.81;;;6.03;90.77
15193;BME280;7697;51.630;7.484;2022-11-13T05:35:29;101794.56;;;6.03;90.87
15193;BME280;7697;51.630;7.484;2022-11-13T05:40:31;101788.75;;;6.00;90.67
15193;BME280;7697;51.630;7.484;2022-11-13T05:45:34;101778.78;;;5.94;90.82
15193;BME280;7697;51.630;7.484;2022-11-13T05:50:35;101779.72;;;5.83;89.97
15193;BME280;7697;51.630;7.484;2022-11-13T05:55:37;101768.81;;;5.78;90.38
15193;BME280;7697;51.630;7.484;2022-11-13T06:00:40;101770.47;;;5.70;90.38
15193;BME280;7697;51.630;7.484;2022-11-13T06:05:42;101767.41;;;5.64;90.31
15193;BME280;7697;51.630;7.484;2022-11-13T06:10:43;101757.47;;;5.58;90.11
15193;BME280;7697;51.630;7.484;2022-11-13T06:15:46;101758.03;;;5.52;90.30
15193;BME280;7697;51.630;7.484;2022-11-13T06:20:48;101748.34;;;5.53;90.37
15193;BME280;7697;51.630;7.484;2022-11-13T06:25:50;101753.03;;;5.49;89.66
15193;BME280;7697;51.630;7.484;2022-11-13T06:30:53;101735.06;;;5.45;90.50
15193;BME280;7697;51.630;7.484;2022-11-13T06:35:55;101739.75;;;5.41;89.92
15193;BME280;7697;51.630;7.484;2022-11-13T06:40:56;101747.47;;;5.33;89.92
15193;BME280;7697;51.630;7.484;2022-11-13T06:46:02;101735.31;;;5.32;89.89
15193;BME280;7697;51.630;7.484;2022-11-13T06:51:06;101736.41;;;5.29;90.17
15193;BME280;7697;51.630;7.484;2022-11-13T06:56:08;101731.44;;;5.26;89.55
15193;BME280;7697;51.630;7.484;2022-11-13T07:01:14;101737.78;;;5.14;89.80
15193;BME280;7697;51.630;7.484;2022-11-13T07:06:18;101733.06;;;5.08;90.75
15193;BME280;7697;51.630;7.484;2022-11-13T07:11:21;101726.56;;;5.12;90.69
15193;BME280;7697;51.630;7.484;2022-11-13T07:16:24;101723.84;;;5.23;90.86
15193;BME280;7697;51.630;7.484;2022-11-13T07:21:26;101719.16;;;5.27;91.14
15193;BME280;7697;51.630;7.484;2022-11-13T07:26:28;101725.25;;;5.27;91.49
15193;BME280;7697;51.630;7.484;2022-11-13T07:31:31;101711.28;;;5.37;91.25
15193;BME280;7697;51.630;7.484;2022-11-13T07:36:33;101705.47;;;5.43;90.99
15193;BME280;7697;51.630;7.484;2022-11-13T07:41:34;101702.16;;;5.41;91.54
15193;BME280;7697;51.630;7.484;2022-11-13T07:46:37;101704.63;;;5.42;91.58
15193;BME280;7697;51.630;7.484;2022-11-13T07:51:39;101704.50;;;5.44;91.24
15193;BME280;7697;51.630;7.484;2022-11-13T07:56:41;101700.63;;;5.48;91.50
15193;BME280;7697;51.630;7.484;2022-11-13T08:01:44;101704.66;;;5.52;91.58
15193;BME280;7697;51.630;7.484;2022-11-13T08:06:46;101700.50;;;5.59;91.65
15193;BME280;7697;51.630;7.484;2022-11-13T08:11:47;101703.81;;;5.71;91.35
15193;BME280;7697;51.630;7.484;2022-11-13T08:16:50;101704.91;;;5.87;91.52
15193;BME280;7697;51.630;7.484;2022-11-13T08:21:52;101704.31;;;6.13;92.91
15193;BME280;7697;51.630;7.484;2022-11-13T08:26:54;101700.63;;;6.43;92.10
15193;BME280;7697;51.630;7.484;2022-11-13T08:31:58;101688.41;;;6.78;92.91
15193;BME280;7697;51.630;7.484;2022-11-13T08:36:59;101685.09;;;7.22;92.24
15193;BME280;7697;51.630;7.484;2022-11-13T08:42:01;101672.94;;;7.64;91.28
15193;BME280;7697;51.630;7.484;2022-11-13T08:47:04;101673.69;;;8.00;90.42
15193;BME280;7697;51.630;7.484;2022-11-13T08:52:06;101669.00;;;8.38;89.54
15193;BME280;7697;51.630;7.484;2022-11-13T08:57:07;101665.53;;;8.79;87.72
15193;BME280;7697;51.630;7.484;2022-11-13T09:02:13;101655.38;;;9.25;86.84
15193;BME280;7697;51.630;7.484;2022-11-13T09:07:15;101664.31;;;9.72;85.65
15193;BME280;7697;51.630;7.484;2022-11-13T09:12:17;101650.19;;;10.29;84.23
15193;BME280;7697;51.630;7.484;2022-11-13T09:17:20;101658.56;;;10.79;82.04
15193;BME280;7697;51.630;7.484;2022-11-13T09:22:21;101651.00;;;11.22;81.65
15193;BME280;7697;51.630;7.484;2022-11-13T09:27:24;101657.59;;;11.49;81.22
15193;BME280;7697;51.630;7.484;2022-11-13T09:32:27;101653.16;;;12.01;80.35
15193;BME280;7697;51.630;7.484;2022-11-13T09:37:29;101662.50;;;12.56;78.96
15193;BME280;7697;51.630;7.484;2022-11-13T09:42:32;101646.97;;;13.10;76.09
15193;BME280;7697;51.630;7.484;2022-11-13T09:47:38;101636.19;;;13.61;73.50
15193;BME280;7697;51.630;7.484;2022-11-13T09:52:43;101640.63;;;14.10;72.00
15193;BME280;7697;51.630;7.484;2022-11-13T09:57:49;101631.91;;;14.57;69.88
15193;BME280;7697;51.630;7.484;2022-11-13T10:03:08;101632.03;;;15.10;69.00
15193;BME280;7697;51.630;7.484;2022-11-13T10:08:17;101629.00;;;15.46;68.06
15193;BME280;7697;51.630;7.484;2022-11-13T10:13:23;101632.28;;;15.87;66.69
15193;BME280;7697;51.630;7.484;2022-11-13T10:18:32;101631.84;;;16.10;65.98
15193;BME280;7697;51.630;7.484;2022-11-13T10:23:37;101626.66;;;16.15;64.94
15193;BME280;7697;51.630;7.484;2022-11-13T10:28:39;101618.19;;;16.31;65.27
15193;BME280;7697;51.630;7.484;2022-11-13T10:33:43;101611.16;;;16.43;64.38
15193;BME280;7697;51.630;7.484;2022-11-13T10:38:47;101599.53;;;16.69;64.77
15193;BME280;7697;51.630;7.484;2022-11-13T10:43:57;101594.72;;;16.84;63.74
15193;BME280;7697;51.630;7.484;2022-11-13T10:49:11;101587.94;;;16.82;61.79
15193;BME280;7697;51.630;7.484;2022-11-13T10:54:21;101576.63;;;16.80;61.83
15193;BME280;7697;51.630;7.484;2022-11-13T10:59:23;101571.16;;;16.68;62.09
15193;BME280;7697;51.630;7.484;2022-11-13T11:04:27;101561.69;;;16.66;62.00
15193;BME280;7697;51.630;7.484;2022-11-13T11:09:30;101552.81;;;16.72;62.54
15193;BME280;7697;51.630;7.484;2022-11-13T11:14:36;101539.44;;;16.72;61.45
15193;BME280;7697;51.630;7.484;2022-11-13T11:19:42;101535.25;;;16.44;62.29
15193;BME280;7697;51.630;7.484;2022-11-13T11:24:56;101529.88;;;16.06;61.27
15193;BME280;7697;51.630;7.484;2022-11-13T11:30:03;101512.97;;;16.12;62.59
15193;BME280;7697;51.630;7.484;2022-11-13T11:35:13;101509.84;;;16.22;61.27
15193;BME280;7697;51.630;7.484;2022-11-13T11:40:21;101502.22;;;16.26;60.60
15193;BME280;7697;51.630;7.484;2022-11-13T11:45:28;101502.03;;;16.27;59.64
15193;BME280;7697;51.630;7.484;2022-11-13T11:50:37;101491.97;;;16.23;60.25
15193;BME280;7697;51.630;7.484;2022-11-13T11:55:59;101489.13;;;16.18;60.32
15193;BME280;7697;51.630;7.484;2022-11-13T12:01:06;101488.75;;;16.45;60.79
15193;BME280;7697;51.630;7.484;2022-11-13T12:06:17;101480.09;;;16.81;60.39
15193;BME280;7697;51.630;7.484;2022-11-13T12:11:26;101471.63;;;17.27;60.45
15193;BME280;7697;51.630;7.484;2022-11-13T12:16:39;101472.91;;;17.68;59.64
15193;BME280;7697;51.630;7.484;2022-11-13T12:21:51;101464.22;;;18.03;58.87
15193;BME280;7697;51.630;7.484;2022-11-13T12:27:05;101454.25;;;18.51;57.80
15193;BME280;7697;51.630;7.484;2022-11-13T12:32:26;101448.84;;;18.81;57.60
15193;BME280;7697;51.630;7.484;2022-11-13T12:37:35;101449.31;;;19.25;56.93
15193;BME280;7697;51.630;7.484;2022-11-13T12:42:44;101440.28;;;19.66;54.79
15193;BME280;7697;51.630;7.484;2022-11-13T12:47:48;101426.88;;;19.94;54.99
15193;BME280;7697;51.630;7.484;2022-11-13T12:53:00;101417.44;;;20.08;50.63
15193;BME280;7697;51.630;7.484;2022-11-13T12:58:08;101419.91;;;20.27;50.54
15193;BME280;7697;51.630;7.484;2022-11-13T13:03:34;101406.09;;;20.35;47.61
15193;BME280;7697;51.630;7.484;2022-11-13T13:08:45;101398.44;;;20.43;48.55
15193;BME280;7697;51.630;7.484;2022-11-13T13:13:55;101395.34;;;20.51;49.24
15193;BME280;7697;51.630;7.484;2022-11-13T13:19:06;101384.50;;;20.63;48.70
15193;BME280;7697;51.630;7.484;2022-11-13T13:24:34;101377.00;;;20.65;48.08
15193;BME280;7697;51.630;7.484;2022-11-13T13:29:39;101372.72;;;20.69;48.23
15193;BME280;7697;51.630;7.484;2022-11-13T13:34:48;101366.09;;;20.77;48.59
15193;BME280;7697;51.630;7.484;2022-11-13T13:40:02;101363.94;;;20.74;48.58
15193;BME280;7697;51.630;7.484;2022-11-13T13:45:34;101354.47;;;20.71;50.22
15193;BME280;7697;51.630;7.484;2022-11-13T13:50:41;101347.78;;;20.57;51.56
15193;BME280;7697;51.630;7.484;2022-11-13T13:55:55;101341.03;;;20.38;52.65
15193;BME280;7697;51.630;7.484;2022-11-13T14:00:58;101334.97;;;20.31;53.49
15193;BME280;7697;51.630;7.484;2022-11-13T14:06:08;101335.22;;;20.29;53.48
15193;BME280;7697;51.630;7.484;2022-11-13T14:11:20;101330.84;;;20.40;54.20
15193;BME280;7697;51.630;7.484;2022-11-13T14:16:22;101326.53;;;20.39;54.66
15193;BME280;7697;51.630;7.484;2022-11-13T14:21:23;101318.25;;;20.12;54.38
15193;BME280;7697;51.630;7.484;2022-11-13T14:26:27;101316.50;;;19.89;54.71
15193;BME280;7697;51.630;7.484;2022-11-13T14:31:31;101311.25;;;19.66;55.90
15193;BME280;7697;51.630;7.484;2022-11-13T14:36:34;101307.47;;;19.50;56.25
15193;BME280;7697;51.630;7.484;2022-11-13T14:41:40;101312.75;;;19.33;57.14
15193;BME280;7697;51.630;7.484;2022-11-13T14:46:46;101302.09;;;19.10;57.44
15193;BME280;7697;51.630;7.484;2022-11-13T14:51:59;101299.34;;;18.82;58.50
15193;BME280;7697;51.630;7.484;2022-11-13T14:57:23;101297.34;;;18.54;59.86
15193;BME280;7697;51.630;7.484;2022-11-13T15:02:25;101298.28;;;18.24;61.35
15193;BME280;7697;51.630;7.484;2022-11-13T15:07:28;101282.63;;;18.10;61.93
15193;BME280;7697;51.630;7.484;2022-11-13T15:12:31;101276.63;;;17.84;62.87
15193;BME280;7697;51.630;7.484;2022-11-13T15:17:33;101263.50;;;17.53;63.84
15193;BME280;7697;51.630;7.484;2022-11-13T15:22:37;101262.22;;;17.25;64.53
15193;BME280;7697;51.630;7.484;2022-11-13T15:27:41;101264.63;;;16.97;65.07
15193;BME280;7697;51.630;7.484;2022-11-13T15:32:43;101257.19;;;16.63;65.18
15193;BME280;7697;51.630;7.484;2022-11-13T15:37:45;101266.09;;;16.32;65.38
15193;BME280;7697;51.630;7.484;2022-11-13T15:42:48;101269.13;;;16.17;66.04
15193;BME280;7697;51.630;7.484;2022-11-13T15:47:50;101265.38;;;16.00;66.21
15193;BME280;7697;51.630;7.484;2022-11-13T15:52:52;101253.03;;;15.67;66.55
15193;BME280;7697;51.630;7.484;2022-11-13T15:57:56;101247.00;;;15.47;66.85
15193;BME280;7697;51.630;7.484;2022-11-13T16:02:58;101244.69;;;15.19;68.05
15193;BME280;7697;51.630;7.484;2022-11-13T16:08:00;101234.56;;;14.90;68.29
15193;BME280;7697;51.630;7.484;2022-11-13T16:13:03;101226.84;;;14.62;68.51
15193;BME280;7697;51.630;7.484;2022-11-13T16:18:07;101215.41;;;14.42;69.13
15193;BME280;7697;51.630;7.484;2022-11-13T16:23:15;101216.03;;;14.24;69.22
15193;BME280;7697;51.630;7.484;2022-11-13T16:28:19;101210.13;;;14.02;69.72
15193;BME280;7697;51.630;7.484;2022-11-13T16:33:20;101208.28;;;13.83;70.45
15193;BME280;7697;51.630;7.484;2022-11-13T16:38:22;101215.03;;;13.66;70.78
15193;BME280;7697;51.630;7.484;2022-11-13T16:43:25;101213.59;;;13.50;70.34
15193;BME280;7697;51.630;7.484;2022-11-13T16:48:27;101223.75;;;13.27;71.66
15193;BME280;7697;51.630;7.484;2022-11-13T16:53:28;101215.09;;;13.11;71.39
15193;BME280;7697;51.630;7.484;2022-11-13T16:58:31;101211.72;;;12.90;71.96
15193;BME280;7697;51.630;7.484;2022-11-13T17:03:33;101202.47;;;12.72;72.12
15193;BME280;7697;51.630;7.484;2022-11-13T17:08:35;101188.03;;;12.47;72.38
15193;BME280;7697;51.630;7.484;2022-11-13T17:13:38;101196.50;;;12.29;72.95
15193;BME280;7697;51.630;7.484;2022-11-13T17:18:39;101190.31;;;12.16;72.99
15193;BME280;7697;51.630;7.484;2022-11-13T17:23:41;101188.97;;;11.98;73.27
15193;BME280;7697;51.630;7.484;2022-11-13T17:28:44;101189.66;;;11.86;73.23
15193;BME280;7697;51.630;7.484;2022-11-13T17:33:46;101194.63;;;11.74;73.82
15193;BME280;7697;51.630;7.484;2022-11-13T17:38:48;101190.09;;;11.68;73.73
15193;BME280;7697;51.630;7.484;2022-11-13T17:43:51;101182.66;;;11.57;73.98
15193;BME280;7697;51.630;7.484;2022-11-13T17:48:53;101175.31;;;11.38;73.46
15193;BME280;7697;51.630;7.484;2022-11-13T17:53:55;101174.75;;;11.21;73.84
15193;BME280;7697;51.630;7.484;2022-11-13T17:58:58;101164.03;;;11.08;74.32
15193;BME280;7697;51.630;7.484;2022-11-13T18:03:59;101152.09;;;10.97;74.21
15193;BME280;7697;51.630;7.484;2022-11-13T18:09:02;101149.56;;;10.89;74.18
15193;BME280;7697;51.630;7.484;2022-11-13T18:14:05;101139.69;;;10.83;74.48
15193;BME280;7697;51.630;7.484;2022-11-13T18:19:07;101145.31;;;10.73;74.69
15193;BME280;7697;51.630;7.484;2022-11-13T18:24:12;101143.19;;;10.69;75.66
15193;BME280;7697;51.630;7.484;2022-11-13T18:29:15;101143.94;;;10.63;75.72
15193;BME280;7697;51.630;7.484;2022-11-13T18:34:17;101151.53;;;10.51;75.87
15193;BME280;7697;51.630;7.484;2022-11-13T18:39:18;101148.53;;;10.39;76.21
15193;BME280;7697;51.630;7.484;2022-11-13T18:44:22;101140.69;;;10.31;75.92
15193;BME280;7697;51.630;7.484;2022-11-13T18:49:23;101142.16;;;10.19;76.29
15193;BME280;7697;51.630;7.484;2022-11-13T18:54:25;101136.28;;;10.09;75.92
15193;BME280;7697;51.630;7.484;2022-11-13T18:59:28;101131.09;;;10.01;76.04
15193;BME280;7697;51.630;7.484;2022-11-13T19:04:33;101132.34;;;9.90;75.97
15193;BME280;7697;51.630;7.484;2022-11-13T19:09:35;101125.31;;;9.83;76.03
15193;BME280;7697;51.630;7.484;2022-11-13T19:14:40;101113.78;;;9.75;76.66
15193;BME280;7697;51.630;7.484;2022-11-13T19:19:42;101103.59;;;9.72;76.73
15193;BME280;7697;51.630;7.484;2022-11-13T19:24:44;101103.78;;;9.71;76.73
15193;BME280;7697;51.630;7.484;2022-11-13T19:29:47;101106.75;;;9.68;76.32
15193;BME280;7697;51.630;7.484;2022-11-13T19:34:48;101111.31;;;9.59;76.16
15193;BME280;7697;51.630;7.484;2022-11-13T19:39:50;101104.63;;;9.49;75.92
15193;BME280;7697;51.630;7.484;2022-11-13T19:44:53;101099.06;;;9.44;76.62
15193;BME280;7697;51.630;7.484;2022-11-13T19:49:55;101094.84;;;9.34;76.93
15193;BME280;7697;51.630;7.484;2022-11-13T19:54:56;101087.81;;;9.27;76.89
15193;BME280;7697;51.630;7.484;2022-11-13T19:59:59;101096.72;;;9.26;76.91
15193;BME280;7697;51.630;7.484;2022-11-13T20:05:01;101082.88;;;9.24;76.95
15193;BME280;7697;51.630;7.484;2022-11-13T20:10:03;101093.34;;;9.17;76.84
15193;BME280;7697;51.630;7.484;2022-11-13T20:15:08;101083.28;;;9.13;77.22
15193;BME280;7697;51.630;7.484;2022-11-13T20:20:10;101087.63;;;9.06;77.69
15193;BME280;7697;51.630;7.484;2022-11-13T20:25:13;101086.69;;;8.98;77.49
15193;BME280;7697;51.630;7.484;2022-11-13T20:30:17;101074.56;;;8.89;77.74
15193;BME280;7697;51.630;7.484;2022-11-13T20:35:19;101067.13;;;8.62;77.01
15193;BME280;7697;51.630;7.484;2022-11-13T20:40:20;101065.91;;;8.50;78.23
15193;BME280;7697;51.630;7.484;2022-11-13T20:45:23;101058.00;;;8.50;77.83
15193;BME280;7697;51.630;7.484;2022-11-13T20:50:25;101067.88;;;8.48;78.45
15193;BME280;7697;51.630;7.484;2022-11-13T20:55:27;101056.03;;;8.44;78.63
15193;BME280;7697;51.630;7.484;2022-11-13T21:00:30;101063.97;;;8.36;78.64
15193;BME280;7697;51.630;7.484;2022-11-13T21:05:32;101070.91;;;8.28;78.30
15193;BME280;7697;51.630;7.484;2022-11-13T21:10:33;101073.25;;;8.15;78.84
15193;BME280;7697;51.630;7.484;2022-11-13T21:15:37;101064.91;;;8.12;79.89
15193;BME280;7697;51.630;7.484;2022-11-13T21:20:39;101051.22;;;8.08;79.77
15193;BME280;7697;51.630;7.484;2022-11-13T21:25:40;101039.03;;;7.99;79.40
15193;BME280;7697;51.630;7.484;2022-11-13T21:30:44;101031.00;;;7.93;79.26
15193;BME280;7697;51.630;7.484;2022-11-13T21:35:45;101022.97;;;7.86;79.64
15193;BME280;7697;51.630;7.484;2022-11-13T21:40:47;101028.22;;;7.86;79.90
15193;BME280;7697;51.630;7.484;2022-11-13T21:46:10;101024.41;;;7.88;80.55
15193;BME280;7697;51.630;7.484;2022-11-13T21:51:14;101015.06;;;7.86;80.51
15193;BME280;7697;51.630;7.484;2022-11-13T21:56:16;101009.31;;;7.74;79.49
15193;BME280;7697;51.630;7.484;2022-11-13T22:01:19;101004.06;;;7.66;79.95
15193;BME280;7697;51.630;7.484;2022-11-13T22:06:22;101005.06;;;7.65;80.56
15193;BME280;7697;51.630;7.484;2022-11-13T22:11:25;100997.84;;;7.59;80.91
15193;BME280;7697;51.630;7.484;2022-11-13T22:16:32;101002.63;;;7.56;80.97
15193;BME280;7697;51.630;7.484;2022-11-13T22:21:34;101005.94;;;7.49;80.92
15193;BME280;7697;51.630;7.484;2022-11-13T22:26:37;101000.84;;;7.40;81.81
15193;BME280;7697;51.630;7.484;2022-11-13T22:31:41;100996.09;;;7.27;80.91
15193;BME280;7697;51.630;7.484;2022-11-13T22:36:44;100996.41;;;7.16;81.37
15193;BME280;7697;51.630;7.484;2022-11-13T22:41:45;100993.81;;;7.08;81.27
15193;BME280;7697;51.630;7.484;2022-11-13T22:46:48;100995.47;;;7.01;80.47
15193;BME280;7697;51.630;7.484;2022-11-13T22:51:50;100993.50;;;6.95;80.74
15193;BME280;7697;51.630;7.484;2022-11-13T22:56:52;100988.25;;;6.87;81.15
15193;BME280;7697;51.630;7.484;2022-11-13T23:01:55;100988.25;;;6.78;81.07
15193;BME280;7697;51.630;7.484;2022-11-13T23:06:56;100981.16;;;6.71;80.83
15193;BME280;7697;51.630;7.484;2022-11-13T23:11:58;100975.88;;;6.63;81.22
15193;BME280;7697;51.630;7.484;2022-11-13T23:17:01;100969.97;;;6.53;81.49
15193;BME280;7697;51.630;7.484;2022-11-13T23:22:02;100959.09;;;6.39;82.00
15193;BME280;7697;51.630;7.484;2022-11-13T23:27:04;100952.16;;;6.30;82.44
15193;BME280;7697;51.630;7.484;2022-11-13T23:32:07;100952.31;;;6.29;81.84
15193;BME280;7697;51.630;7.484;2022-11-13T23:37:09;100941.50;;;6.24;82.11
15193;BME280;7697;51.630;7.484;2022-11-13T23:42:10;100934.22;;;6.18;82.48
15193;BME280;7697;51.630;7.484;2022-11-13T23:47:13;100931.09;;;6.06;82.75
15193;BME280;7697;51.630;7.484;2022-11-13T23:52:15;100929.59;;;5.95;82.65
15193;BME280;7697;51.630;7.484;2022-11-13T23:57:17;100931.34;;;5.87;81.90
